sensor_id;sensor_type;location;lat;lon;timestamp;pressure;altitude;pressure_sealevel;temperature;humidity
11077;BME280;5591;42.626;23.380;2023-08-21T00:01:45;94554.59;;;25.15;92.03
11077;BME280;5591;42.626;23.380;2023-08-21T00:04:12;94549.75;;;25.17;92.04
11077;BME280;5591;42.626;23.380;2023-08-21T00:06:39;94562.94;;;25.14;93.13
11077;BME280;5591;42.626;23.380;2023-08-21T00:09:05;94544.91;;;25.09;93.13
11077;BME280;5591;42.626;23.380;2023-08-21T00:11:32;94557.53;;;24.94;94.97
11077;BME280;5591;42.626;23.380;2023-08-21T00:13:59;94553.78;;;25.00;94.16
11077;BME280;5591;42.626;23.380;2023-08-21T00:16:27;94555.94;;;24.93;94.61
11077;BME280;5591;42.626;23.380;2023-08-21T00:18:55;94553.00;;;25.04;94.07
11077;BME280;5591;42.626;23.380;2023-08-21T00:21:22;94551.91;;;24.95;94.89
11077;BME280;5591;42.626;23.380;2023-08-21T00:23:49;94551.66;;;24.87;95.11
11077;BME280;5591;42.626;23.380;2023-08-21T00:26:15;94553.25;;;24.83;95.13
11077;BME280;5591;42.626;23.380;2023-08-21T00:28:42;94548.94;;;24.82;95.28
11077;BME280;5591;42.626;23.380;2023-08-21T00:31:09;94549.47;;;24.74;95.33
11077;BME280;5591;42.626;23.380;2023-08-21T00:33:37;94545.19;;;24.68;95.48
11077;BME280;5591;42.626;23.380;2023-08-21T00:36:04;94555.66;;;24.74;95.63
11077;BME280;5591;42.626;23.380;2023-08-21T00:38:31;94550.25;;;24.69;95.79
11077;BME280;5591;42.626;23.380;2023-08-21T00:40:58;94541.63;;;24.52;96.49
11077;BME280;5591;42.626;23.380;2023-08-21T00:43:25;94555.56;;;24.44;97.13
11077;BME280;5591;42.626;23.380;2023-08-21T00:45:52;94573.84;;;24.52;97.07
11077;BME280;5591;42.626;23.380;2023-08-21T00:48:19;94556.69;;;24.53;95.89
11077;BME280;5591;42.626;23.380;2023-08-21T00:50:48;94566.59;;;24.48;96.71
11077;BME280;5591;42.626;23.380;2023-08-21T00:53:15;94557.97;;;24.41;97.41
11077;BME280;5591;42.626;23.380;2023-08-21T00:55:42;94559.38;;;24.58;97.32
11077;BME280;5591;42.626;23.380;2023-08-21T00:58:10;94571.41;;;24.46;98.47
11077;BME280;5591;42.626;23.380;2023-08-21T01:00:38;94569.81;;;24.50;97.85
11077;BME280;5591;42.626;23.380;2023-08-21T01:03:06;94573.81;;;24.42;96.25
11077;BME280;5591;42.626;23.380;2023-08-21T01:05:34;94570.59;;;24.40;98.37
11077;BME280;5591;42.626;23.380;2023-08-21T01:08:05;94566.03;;;24.51;97.79
11077;BME280;5591;42.626;23.380;2023-08-21T01:10:45;94569.28;;;24.48;97.83
11077;BME280;5591;42.626;23.380;2023-08-21T01:13:21;94569.78;;;24.35;98.84
11077;BME280;5591;42.626;23.380;2023-08-21T01:15:50;94562.78;;;24.39;99.35
11077;BME280;5591;42.626;23.380;2023-08-21T01:18:18;94568.97;;;24.34;100.00
11077;BME280;5591;42.626;23.380;2023-08-21T01:20:47;94565.44;;;24.29;100.00
11077;BME280;5591;42.626;23.380;2023-08-21T01:23:29;94573.50;;;24.24;100.00
11077;BME280;5591;42.626;23.380;2023-08-21T01:25:56;94567.81;;;24.10;100.00
11077;BME280;5591;42.626;23.380;2023-08-21T01:28:22;94565.94;;;24.16;100.00
11077;BME280;5591;42.626;23.380;2023-08-21T01:30:51;94555.19;;;24.06;100.00
11077;BME280;5591;42.626;23.380;2023-08-21T01:33:22;94561.09;;;24.08;100.00
11077;BME280;5591;42.626;23.380;2023-08-21T01:35:50;94561.88;;;23.98;100.00
11077;BME280;5591;42.626;23.380;2023-08-21T01:38:17;94570.84;;;23.82;100.00
11077;BME280;5591;42.626;23.380;2023-08-21T01:40:46;94568.00;;;23.99;100.00
11077;BME280;5591;42.626;23.380;2023-08-21T01:43:13;94549.75;;;23.91;100.00
11077;BME280;5591;42.626;23.380;2023-08-21T01:45:40;94606.00;;;23.81;100.00
11077;BME280;5591;42.626;23.380;2023-08-21T01:48:07;94564.38;;;23.73;100.00
11077;BME280;5591;42.626;23.380;2023-08-21T01:50:33;94564.19;;;23.85;100.00
11077;BME280;5591;42.626;23.380;2023-08-21T01:53:00;94566.91;;;23.90;100.00
11077;BME280;5591;42.626;23.380;2023-08-21T01:55:27;94565.56;;;23.87;100.00
11077;BME280;5591;42.626;23.380;2023-08-21T01:57:55;94556.66;;;23.82;100.00
11077;BME280;5591;42.626;23.380;2023-08-21T02:00:22;94562.34;;;23.90;100.00
11077;BME280;5591;42.626;23.380;2023-08-21T02:02:49;94553.78;;;23.88;100.00
11077;BME280;5591;42.626;23.380;2023-08-21T02:05:15;94555.38;;;23.89;100.00
11077;BME280;5591;42.626;23.380;2023-08-21T02:07:42;94563.97;;;23.91;100.00
11077;BME280;5591;42.626;23.380;2023-08-21T02:10:10;94560.94;;;23.83;100.00
11077;BME280;5591;42.626;23.380;2023-08-21T02:12:37;94556.56;;;23.67;100.00
11077;BME280;5591;42.626;23.380;2023-08-21T02:15:06;94559.25;;;23.67;100.00
11077;BME280;5591;42.626;23.380;2023-08-21T02:17:33;94565.00;;;23.44;100.00
11077;BME280;5591;42.626;23.380;2023-08-21T02:20:00;94536.34;;;23.44;100.00
11077;BME280;5591;42.626;23.380;2023-08-21T02:22:27;94560.78;;;23.53;100.00
11077;BME280;5591;42.626;23.380;2023-08-21T02:24:54;94558.09;;;23.53;100.00
11077;BME280;5591;42.626;23.380;2023-08-21T02:27:20;94549.53;;;23.51;100.00
11077;BME280;5591;42.626;23.380;2023-08-21T02:29:47;94558.13;;;23.58;100.00
11077;BME280;5591;42.626;23.380;2023-08-21T02:32:15;94553.81;;;23.57;100.00
11077;BME280;5591;42.626;23.380;2023-08-21T02:34:42;94557.25;;;23.42;100.00
11077;BME280;5591;42.626;23.380;2023-08-21T02:37:09;94556.66;;;23.35;100.00
11077;BME280;5591;42.626;23.380;2023-08-21T02:39:36;94556.97;;;23.44;100.00
11077;BME280;5591;42.626;23.380;2023-08-21T02:42:02;94561.56;;;23.48;100.00
11077;BME280;5591;42.626;23.380;2023-08-21T02:44:29;94538.19;;;23.39;100.00
11077;BME280;5591;42.626;23.380;2023-08-21T02:46:56;94552.66;;;23.38;100.00
11077;BME280;5591;42.626;23.380;2023-08-21T02:49:24;94562.25;;;23.34;100.00
11077;BME280;5591;42.626;23.380;2023-08-21T02:51:51;94557.97;;;23.33;100.00
11077;BME280;5591;42.626;23.380;2023-08-21T02:54:18;94559.81;;;23.27;100.00
11077;BME280;5591;42.626;23.380;2023-08-21T02:56:44;94552.22;;;23.14;100.00
11077;BME280;5591;42.626;23.380;2023-08-21T02:59:11;94555.47;;;22.90;100.00
11077;BME280;5591;42.626;23.380;2023-08-21T03:01:38;94562.75;;;22.95;100.00
11077;BME280;5591;42.626;23.380;2023-08-21T03:04:05;94561.72;;;22.69;100.00
11077;BME280;5591;42.626;23.380;2023-08-21T03:06:33;94561.72;;;22.69;100.00
11077;BME280;5591;42.626;23.380;2023-08-21T03:09:00;94557.53;;;22.52;100.00
11077;BME280;5591;42.626;23.380;2023-08-21T03:11:26;94559.16;;;22.53;100.00
11077;BME280;5591;42.626;23.380;2023-08-21T03:13:54;94550.50;;;22.46;100.00
11077;BME280;5591;42.626;23.380;2023-08-21T03:16:20;94594.09;;;22.41;100.00
11077;BME280;5591;42.626;23.380;2023-08-21T03:18:54;94553.44;;;22.44;100.00
11077;BME280;5591;42.626;23.380;2023-08-21T03:21:22;94575.59;;;22.40;100.00
11077;BME280;5591;42.626;23.380;2023-08-21T03:23:51;94571.63;;;22.42;100.00
11077;BME280;5591;42.626;23.380;2023-08-21T03:26:18;94579.31;;;22.39;100.00
11077;BME280;5591;42.626;23.380;2023-08-21T03:28:45;94576.31;;;22.35;100.00
11077;BME280;5591;42.626;23.380;2023-08-21T03:31:12;94583.72;;;22.28;100.00
11077;BME280;5591;42.626;23.380;2023-08-21T03:33:38;94578.03;;;22.20;100.00
11077;BME280;5591;42.626;23.380;2023-08-21T03:36:06;94574.25;;;22.16;100.00
11077;BME280;5591;42.626;23.380;2023-08-21T03:38:32;94574.50;;;22.14;100.00
11077;BME280;5591;42.626;23.380;2023-08-21T03:41:01;94574.81;;;22.18;100.00
11077;BME280;5591;42.626;23.380;2023-08-21T03:43:30;94566.41;;;22.09;100.00
11077;BME280;5591;42.626;23.380;2023-08-21T03:45:57;94571.69;;;22.26;100.00
11077;BME280;5591;42.626;23.380;2023-08-21T03:48:24;94570.25;;;22.18;100.00
11077;BME280;5591;42.626;23.380;2023-08-21T03:50:50;94573.03;;;22.28;100.00
11077;BME280;5591;42.626;23.380;2023-08-21T03:53:17;94572.03;;;22.34;100.00
11077;BME280;5591;42.626;23.380;2023-08-21T03:55:44;94572.19;;;22.44;100.00
11077;BME280;5591;42.626;23.380;2023-08-21T03:58:13;94573.25;;;22.43;100.00
11077;BME280;5591;42.626;23.380;2023-08-21T04:00:40;94580.00;;;22.51;100.00
11077;BME280;5591;42.626;23.380;2023-08-21T04:03:07;94565.47;;;22.42;100.00
11077;BME280;5591;42.626;23.380;2023-08-21T04:05:33;94578.22;;;22.61;100.00
11077;BME280;5591;42.626;23.380;2023-08-21T04:08:00;94572.41;;;22.69;100.00
11077;BME280;5591;42.626;23.380;2023-08-21T04:10:27;94581.16;;;22.86;100.00
11077;BME280;5591;42.626;23.380;2023-08-21T04:12:54;94583.22;;;22.79;100.00
11077;BME280;5591;42.626;23.380;2023-08-21T04:15:22;94585.75;;;22.91;100.00
11077;BME280;5591;42.626;23.380;2023-08-21T04:17:49;94581.25;;;22.96;100.00
11077;BME280;5591;42.626;23.380;2023-08-21T04:20:16;94582.09;;;23.02;100.00
11077;BME280;5591;42.626;23.380;2023-08-21T04:22:42;94592.72;;;22.92;100.00
11077;BME280;5591;42.626;23.380;2023-08-21T04:25:09;94586.63;;;23.01;100.00
11077;BME280;5591;42.626;23.380;2023-08-21T04:27:36;94583.19;;;23.05;100.00
11077;BME280;5591;42.626;23.380;2023-08-21T04:30:04;94582.94;;;23.38;100.00
11077;BME280;5591;42.626;23.380;2023-08-21T04:32:33;94580.53;;;23.42;100.00
11077;BME280;5591;42.626;23.380;2023-08-21T04:34:59;94588.41;;;23.58;100.00
11077;BME280;5591;42.626;23.380;2023-08-21T04:37:30;94592.84;;;23.79;100.00
11077;BME280;5591;42.626;23.380;2023-08-21T04:39:57;94583.63;;;24.07;100.00
11077;BME280;5591;42.626;23.380;2023-08-21T04:42:24;94594.34;;;24.02;100.00
11077;BME280;5591;42.626;23.380;2023-08-21T04:44:51;94596.53;;;24.20;99.09
11077;BME280;5591;42.626;23.380;2023-08-21T04:47:22;94590.72;;;24.33;98.32
11077;BME280;5591;42.626;23.380;2023-08-21T04:49:50;94591.28;;;24.45;97.71
11077;BME280;5591;42.626;23.380;2023-08-21T04:52:17;94587.31;;;24.67;96.06
11077;BME280;5591;42.626;23.380;2023-08-21T04:54:44;94591.63;;;24.68;95.06
11077;BME280;5591;42.626;23.380;2023-08-21T04:57:11;94590.88;;;24.88;94.42
11077;BME280;5591;42.626;23.380;2023-08-21T04:59:38;94593.25;;;24.89;95.94
11077;BME280;5591;42.626;23.380;2023-08-21T05:02:05;94597.84;;;25.04;95.48
11077;BME280;5591;42.626;23.380;2023-08-21T05:04:32;94601.59;;;25.18;94.51
11077;BME280;5591;42.626;23.380;2023-08-21T05:07:00;94602.41;;;25.08;95.01
11077;BME280;5591;42.626;23.380;2023-08-21T05:09:27;94606.97;;;24.88;97.00
11077;BME280;5591;42.626;23.380;2023-08-21T05:11:54;94583.81;;;24.57;97.52
11077;BME280;5591;42.626;23.380;2023-08-21T05:14:21;94609.41;;;25.19;96.95
11077;BME280;5591;42.626;23.380;2023-08-21T05:16:48;94610.53;;;25.38;96.00
11077;BME280;5591;42.626;23.380;2023-08-21T05:19:15;94608.91;;;25.37;95.48
11077;BME280;5591;42.626;23.380;2023-08-21T05:21:42;94619.13;;;25.30;96.91
11077;BME280;5591;42.626;23.380;2023-08-21T05:24:10;94606.75;;;25.59;95.04
11077;BME280;5591;42.626;23.380;2023-08-21T05:26:37;94611.56;;;25.77;93.65
11077;BME280;5591;42.626;23.380;2023-08-21T05:29:05;94618.56;;;25.78;93.62
11077;BME280;5591;42.626;23.380;2023-08-21T05:31:31;94611.78;;;26.00;92.85
11077;BME280;5591;42.626;23.380;2023-08-21T05:33:58;94614.97;;;26.12;92.37
11077;BME280;5591;42.626;23.380;2023-08-21T05:36:25;94612.56;;;26.21;91.66
11077;BME280;5591;42.626;23.380;2023-08-21T05:38:52;94606.09;;;26.22;91.82
11077;BME280;5591;42.626;23.380;2023-08-21T05:41:20;94613.63;;;26.15;91.99
11077;BME280;5591;42.626;23.380;2023-08-21T05:43:47;94622.94;;;26.47;90.55
11077;BME280;5591;42.626;23.380;2023-08-21T05:46:14;94608.63;;;26.62;89.66
11077;BME280;5591;42.626;23.380;2023-08-21T05:48:41;94598.59;;;26.09;91.46
11077;BME280;5591;42.626;23.380;2023-08-21T05:51:08;94605.41;;;25.62;94.31
11077;BME280;5591;42.626;23.380;2023-08-21T05:53:38;94604.31;;;25.68;95.09
11077;BME280;5591;42.626;23.380;2023-08-21T05:56:04;94606.72;;;25.79;93.53
11077;BME280;5591;42.626;23.380;2023-08-21T05:58:32;94607.25;;;25.81;92.01
11077;BME280;5591;42.626;23.380;2023-08-21T06:00:59;94605.63;;;25.80;91.31
11077;BME280;5591;42.626;23.380;2023-08-21T06:03:26;94610.72;;;26.01;90.21
11077;BME280;5591;42.626;23.380;2023-08-21T06:05:53;94608.28;;;26.10;89.97
11077;BME280;5591;42.626;23.380;2023-08-21T06:08:20;94611.88;;;26.49;88.21
11077;BME280;5591;42.626;23.380;2023-08-21T06:10:50;94607.19;;;26.79;86.35
11077;BME280;5591;42.626;23.380;2023-08-21T06:13:17;94611.97;;;26.29;88.35
11077;BME280;5591;42.626;23.380;2023-08-21T06:15:45;94603.00;;;26.43;87.47
11077;BME280;5591;42.626;23.380;2023-08-21T06:18:13;94603.72;;;26.69;85.19
11077;BME280;5591;42.626;23.380;2023-08-21T06:20:42;94623.31;;;26.21;86.46
11077;BME280;5591;42.626;23.380;2023-08-21T06:23:09;94624.97;;;26.12;87.23
11077;BME280;5591;42.626;23.380;2023-08-21T06:25:36;94621.34;;;26.46;85.09
11077;BME280;5591;42.626;23.380;2023-08-21T06:28:03;94619.81;;;26.84;83.00
11077;BME280;5591;42.626;23.380;2023-08-21T06:30:30;94624.06;;;26.95;81.90
11077;BME280;5591;42.626;23.380;2023-08-21T06:32:58;94617.66;;;26.81;83.00
11077;BME280;5591;42.626;23.380;2023-08-21T06:35:25;94618.22;;;26.83;82.46
11077;BME280;5591;42.626;23.380;2023-08-21T06:37:52;94623.84;;;26.86;82.13
11077;BME280;5591;42.626;23.380;2023-08-21T06:40:19;94624.53;;;27.02;82.07
11077;BME280;5591;42.626;23.380;2023-08-21T06:42:46;94623.97;;;27.15;81.08
11077;BME280;5591;42.626;23.380;2023-08-21T06:45:14;94622.13;;;27.44;78.29
11077;BME280;5591;42.626;23.380;2023-08-21T06:47:41;94616.63;;;27.54;78.37
11077;BME280;5591;42.626;23.380;2023-08-21T06:50:10;94622.56;;;27.22;79.54
11077;BME280;5591;42.626;23.380;2023-08-21T06:52:37;94621.91;;;27.35;79.55
11077;BME280;5591;42.626;23.380;2023-08-21T06:55:04;94625.19;;;27.94;75.57
11077;BME280;5591;42.626;23.380;2023-08-21T06:57:31;94629.13;;;27.78;75.83
11077;BME280;5591;42.626;23.380;2023-08-21T06:59:58;94628.63;;;28.00;75.23
11077;BME280;5591;42.626;23.380;2023-08-21T07:02:24;94626.84;;;28.42;73.71
11077;BME280;5591;42.626;23.380;2023-08-21T07:04:51;94622.31;;;28.38;72.75
11077;BME280;5591;42.626;23.380;2023-08-21T07:07:19;94627.59;;;28.48;72.78
11077;BME280;5591;42.626;23.380;2023-08-21T07:09:46;94618.75;;;28.66;72.18
11077;BME280;5591;42.626;23.380;2023-08-21T07:12:13;94628.81;;;28.60;72.48
11077;BME280;5591;42.626;23.380;2023-08-21T07:14:40;94623.81;;;29.09;71.42
11077;BME280;5591;42.626;23.380;2023-08-21T07:17:06;94623.84;;;28.67;72.45
11077;BME280;5591;42.626;23.380;2023-08-21T07:19:33;94587.16;;;28.43;72.52
11077;BME280;5591;42.626;23.380;2023-08-21T07:22:00;94623.53;;;28.92;72.46
11077;BME280;5591;42.626;23.380;2023-08-21T07:24:28;94613.66;;;29.38;69.67
11077;BME280;5591;42.626;23.380;2023-08-21T07:26:55;94612.34;;;29.35;69.68
11077;BME280;5591;42.626;23.380;2023-08-21T07:29:23;94616.56;;;29.60;69.15
11077;BME280;5591;42.626;23.380;2023-08-21T07:31:49;94617.88;;;28.88;71.21
11077;BME280;5591;42.626;23.380;2023-08-21T07:34:16;94616.28;;;29.24;69.65
11077;BME280;5591;42.626;23.380;2023-08-21T07:36:43;94613.91;;;30.05;65.98
11077;BME280;5591;42.626;23.380;2023-08-21T07:39:10;94610.63;;;30.35;66.02
11077;BME280;5591;42.626;23.380;2023-08-21T07:41:38;94617.22;;;30.83;63.49
11077;BME280;5591;42.626;23.380;2023-08-21T07:44:05;94612.00;;;31.00;62.16
11077;BME280;5591;42.626;23.380;2023-08-21T07:46:31;94609.91;;;30.30;62.86
11077;BME280;5591;42.626;23.380;2023-08-21T07:48:58;94612.81;;;30.20;64.02
11077;BME280;5591;42.626;23.380;2023-08-21T07:51:25;94606.59;;;30.19;64.52
11077;BME280;5591;42.626;23.380;2023-08-21T07:53:52;94612.41;;;30.26;64.06
11077;BME280;5591;42.626;23.380;2023-08-21T07:56:19;94601.97;;;30.33;63.18
11077;BME280;5591;42.626;23.380;2023-08-21T07:58:47;94610.41;;;30.86;60.95
11077;BME280;5591;42.626;23.380;2023-08-21T08:01:14;94602.78;;;30.74;60.55
11077;BME280;5591;42.626;23.380;2023-08-21T08:03:41;94609.16;;;30.92;60.63
11077;BME280;5591;42.626;23.380;2023-08-21T08:06:07;94609.72;;;30.80;59.60
11077;BME280;5591;42.626;23.380;2023-08-21T08:08:34;94599.59;;;31.21;57.21
11077;BME280;5591;42.626;23.380;2023-08-21T08:11:02;94595.09;;;31.03;55.98
11077;BME280;5591;42.626;23.380;2023-08-21T08:13:29;94570.88;;;31.42;54.85
11077;BME280;5591;42.626;23.380;2023-08-21T08:15:57;94588.63;;;31.26;56.10
11077;BME280;5591;42.626;23.380;2023-08-21T08:18:24;94583.56;;;30.98;56.87
11077;BME280;5591;42.626;23.380;2023-08-21T08:20:51;94600.41;;;31.65;55.33
11077;BME280;5591;42.626;23.380;2023-08-21T08:23:19;94594.50;;;32.16;53.05
11077;BME280;5591;42.626;23.380;2023-08-21T08:25:47;94595.25;;;32.38;52.07
11077;BME280;5591;42.626;23.380;2023-08-21T08:28:13;94592.31;;;32.65;50.94
11077;BME280;5591;42.626;23.380;2023-08-21T08:30:40;94590.53;;;31.26;53.99
11077;BME280;5591;42.626;23.380;2023-08-21T08:33:08;94590.16;;;31.41;55.38
11077;BME280;5591;42.626;23.380;2023-08-21T08:35:35;94573.44;;;31.91;53.55
11077;BME280;5591;42.626;23.380;2023-08-21T08:38:02;94582.13;;;32.71;50.23
11077;BME280;5591;42.626;23.380;2023-08-21T08:40:30;94586.97;;;33.08;48.11
11077;BME280;5591;42.626;23.380;2023-08-21T08:42:57;94587.44;;;33.01;48.11
11077;BME280;5591;42.626;23.380;2023-08-21T08:45:28;94578.50;;;33.09;48.05
11077;BME280;5591;42.626;23.380;2023-08-21T08:47:59;94571.97;;;33.27;47.18
11077;BME280;5591;42.626;23.380;2023-08-21T08:50:30;94570.69;;;33.50;46.11
11077;BME280;5591;42.626;23.380;2023-08-21T08:52:57;94574.06;;;33.30;46.43
11077;BME280;5591;42.626;23.380;2023-08-21T08:55:24;94578.09;;;32.21;48.88
11077;BME280;5591;42.626;23.380;2023-08-21T08:57:51;94579.00;;;31.64;51.41
11077;BME280;5591;42.626;23.380;2023-08-21T09:00:18;94568.47;;;31.93;50.74
11077;BME280;5591;42.626;23.380;2023-08-21T09:02:47;94565.91;;;31.88;50.51
11077;BME280;5591;42.626;23.380;2023-08-21T09:05:14;94574.66;;;32.15;49.57
11077;BME280;5591;42.626;23.380;2023-08-21T09:07:42;94573.97;;;32.88;47.97
11077;BME280;5591;42.626;23.380;2023-08-21T09:10:13;94574.97;;;33.09;46.42
11077;BME280;5591;42.626;23.380;2023-08-21T09:12:41;94570.19;;;33.57;44.05
11077;BME280;5591;42.626;23.380;2023-08-21T09:15:11;94551.25;;;33.86;43.03
11077;BME280;5591;42.626;23.380;2023-08-21T09:17:38;94572.97;;;34.20;43.33
11077;BME280;5591;42.626;23.380;2023-08-21T09:20:05;94571.19;;;34.24;42.42
11077;BME280;5591;42.626;23.380;2023-08-21T09:22:33;94569.56;;;33.34;43.13
11077;BME280;5591;42.626;23.380;2023-08-21T09:25:02;94564.09;;;32.92;44.00
11077;BME280;5591;42.626;23.380;2023-08-21T09:27:32;94557.38;;;33.15;43.96
11077;BME280;5591;42.626;23.380;2023-08-21T09:29:59;94565.84;;;33.64;43.07
11077;BME280;5591;42.626;23.380;2023-08-21T09:32:27;94559.69;;;34.01;42.36
11077;BME280;5591;42.626;23.380;2023-08-21T09:34:54;94556.88;;;32.96;44.29
11077;BME280;5591;42.626;23.380;2023-08-21T09:37:20;94519.59;;;32.96;43.65
11077;BME280;5591;42.626;23.380;2023-08-21T09:39:47;94555.00;;;33.22;42.85
11077;BME280;5591;42.626;23.380;2023-08-21T09:42:17;94555.59;;;33.19;43.32
11077;BME280;5591;42.626;23.380;2023-08-21T09:44:44;94553.19;;;32.92;44.26
11077;BME280;5591;42.626;23.380;2023-08-21T09:47:11;94544.25;;;32.44;43.54
11077;BME280;5591;42.626;23.380;2023-08-21T09:49:39;94484.84;;;33.02;42.11
11077;BME280;5591;42.626;23.380;2023-08-21T09:52:08;94540.53;;;33.64;41.70
11077;BME280;5591;42.626;23.380;2023-08-21T09:54:38;94542.66;;;34.13;40.36
11077;BME280;5591;42.626;23.380;2023-08-21T09:57:05;94546.16;;;34.59;39.46
11077;BME280;5591;42.626;23.380;2023-08-21T09:59:33;94542.53;;;35.04;39.11
11077;BME280;5591;42.626;23.380;2023-08-21T10:02:00;94531.31;;;35.26;39.11
11077;BME280;5591;42.626;23.380;2023-08-21T10:04:28;94546.28;;;35.41;37.83
11077;BME280;5591;42.626;23.380;2023-08-21T10:06:56;94534.44;;;35.49;37.99
11077;BME280;5591;42.626;23.380;2023-08-21T10:09:24;94529.75;;;35.90;37.11
11077;BME280;5591;42.626;23.380;2023-08-21T10:11:55;94534.03;;;35.59;37.03
11077;BME280;5591;42.626;23.380;2023-08-21T10:14:22;94525.88;;;35.18;36.57
11077;BME280;5591;42.626;23.380;2023-08-21T10:16:53;94511.78;;;35.36;36.45
11077;BME280;5591;42.626;23.380;2023-08-21T10:19:20;94519.59;;;35.58;36.16
11077;BME280;5591;42.626;23.380;2023-08-21T10:21:47;94528.69;;;35.62;36.24
11077;BME280;5591;42.626;23.380;2023-08-21T10:24:26;94516.53;;;35.92;36.12
11077;BME280;5591;42.626;23.380;2023-08-21T10:26:58;94521.09;;;36.00;36.70
11077;BME280;5591;42.626;23.380;2023-08-21T10:29:24;94516.22;;;35.00;36.73
11077;BME280;5591;42.626;23.380;2023-08-21T10:32:00;94508.69;;;34.97;36.61
11077;BME280;5591;42.626;23.380;2023-08-21T10:34:33;94512.25;;;35.18;37.12
11077;BME280;5591;42.626;23.380;2023-08-21T10:37:09;94506.47;;;35.84;36.53
11077;BME280;5591;42.626;23.380;2023-08-21T10:39:54;94505.34;;;35.53;35.42
11077;BME280;5591;42.626;23.380;2023-08-21T10:42:36;94503.38;;;35.74;35.36
11077;BME280;5591;42.626;23.380;2023-08-21T10:45:10;94508.78;;;35.94;35.76
11077;BME280;5591;42.626;23.380;2023-08-21T10:47:38;94497.09;;;36.42;34.91
11077;BME280;5591;42.626;23.380;2023-08-21T10:50:06;94476.53;;;36.00;35.21
11077;BME280;5591;42.626;23.380;2023-08-21T10:52:35;94495.06;;;36.63;35.04
11077;BME280;5591;42.626;23.380;2023-08-21T10:55:03;94480.13;;;36.12;35.22
11077;BME280;5591;42.626;23.380;2023-08-21T10:57:31;94484.03;;;35.91;35.36
11077;BME280;5591;42.626;23.380;2023-08-21T10:59:59;94480.28;;;35.95;35.16
11077;BME280;5591;42.626;23.380;2023-08-21T11:02:29;94465.91;;;35.74;35.55
11077;BME280;5591;42.626;23.380;2023-08-21T11:04:58;94472.25;;;36.71;34.49
11077;BME280;5591;42.626;23.380;2023-08-21T11:07:26;94470.94;;;37.04;34.87
11077;BME280;5591;42.626;23.380;2023-08-21T11:09:53;94475.38;;;37.36;33.69
11077;BME280;5591;42.626;23.380;2023-08-21T11:12:21;94476.63;;;37.39;33.11
11077;BME280;5591;42.626;23.380;2023-08-21T11:14:48;94465.31;;;37.13;33.50
11077;BME280;5591;42.626;23.380;2023-08-21T11:17:15;94472.84;;;37.86;32.65
11077;BME280;5591;42.626;23.380;2023-08-21T11:19:43;94475.91;;;38.27;32.51
11077;BME280;5591;42.626;23.380;2023-08-21T11:22:12;94466.63;;;38.47;32.62
11077;BME280;5591;42.626;23.380;2023-08-21T11:24:43;94467.72;;;39.12;31.32
11077;BME280;5591;42.626;23.380;2023-08-21T11:27:12;94470.16;;;38.98;31.25
11077;BME280;5591;42.626;23.380;2023-08-21T11:29:41;94459.16;;;39.17;30.43
11077;BME280;5591;42.626;23.380;2023-08-21T11:32:17;94458.94;;;38.06;31.16
11077;BME280;5591;42.626;23.380;2023-08-21T11:34:48;94450.41;;;38.27;30.90
11077;BME280;5591;42.626;23.380;2023-08-21T11:37:18;94462.03;;;38.20;31.20
11077;BME280;5591;42.626;23.380;2023-08-21T11:39:46;94343.13;;;38.66;29.75
11077;BME280;5591;42.626;23.380;2023-08-21T11:42:14;94448.56;;;40.40;28.59
11077;BME280;5591;42.626;23.380;2023-08-21T11:44:46;94448.81;;;41.35;27.66
11077;BME280;5591;42.626;23.380;2023-08-21T11:47:14;94449.50;;;41.61;26.75
11077;BME280;5591;42.626;23.380;2023-08-21T11:49:42;94458.47;;;39.99;27.26
11077;BME280;5591;42.626;23.380;2023-08-21T11:52:09;94454.56;;;38.52;28.95
11077;BME280;5591;42.626;23.380;2023-08-21T15:06:16;94380.94;;;38.92;31.66
11077;BME280;5591;42.626;23.380;2023-08-21T15:08:42;94389.78;;;39.01;31.54
11077;BME280;5591;42.626;23.380;2023-08-21T15:11:09;94385.34;;;38.27;32.63
11077;BME280;5591;42.626;23.380;2023-08-21T15:13:37;94381.31;;;37.90;33.57
11077;BME280;5591;42.626;23.380;2023-08-21T15:16:04;94352.19;;;39.24;31.98
11077;BME280;5591;42.626;23.380;2023-08-21T15:18:31;94378.38;;;39.59;31.80
11077;BME280;5591;42.626;23.380;2023-08-21T15:20:58;94373.81;;;40.93;29.38
11077;BME280;5591;42.626;23.380;2023-08-21T15:23:26;94346.59;;;40.88;30.05
11077;BME280;5591;42.626;23.380;2023-08-21T15:25:53;94363.06;;;41.47;28.85
11077;BME280;5591;42.626;23.380;2023-08-21T15:28:20;94371.22;;;42.67;27.53
11077;BME280;5591;42.626;23.380;2023-08-21T15:30:47;94370.97;;;42.35;27.96
11077;BME280;5591;42.626;23.380;2023-08-21T15:33:14;94372.22;;;43.02;27.25
11077;BME280;5591;42.626;23.380;2023-08-21T15:35:41;94383.09;;;43.63;26.69
11077;BME280;5591;42.626;23.380;2023-08-21T15:38:07;94382.81;;;44.10;26.16
11077;BME280;5591;42.626;23.380;2023-08-21T15:40:36;94383.81;;;43.39;26.43
11077;BME280;5591;42.626;23.380;2023-08-21T15:43:04;94393.59;;;42.04;27.56
11077;BME280;5591;42.626;23.380;2023-08-21T15:45:33;94378.09;;;41.53;28.94
11077;BME280;5591;42.626;23.380;2023-08-21T15:48:00;94396.41;;;40.24;29.81
11077;BME280;5591;42.626;23.380;2023-08-21T15:50:26;94389.53;;;38.90;31.64
11077;BME280;5591;42.626;23.380;2023-08-21T15:52:53;94396.72;;;38.10;33.23
11077;BME280;5591;42.626;23.380;2023-08-21T15:55:20;94394.69;;;37.34;34.77
11077;BME280;5591;42.626;23.380;2023-08-21T15:57:49;94405.19;;;36.65;35.83
11077;BME280;5591;42.626;23.380;2023-08-21T16:00:16;94403.28;;;36.29;36.53
11077;BME280;5591;42.626;23.380;2023-08-21T16:02:43;94402.97;;;36.07;37.73
11077;BME280;5591;42.626;23.380;2023-08-21T16:05:09;94407.66;;;35.50;38.55
11077;BME280;5591;42.626;23.380;2023-08-21T16:07:37;94403.22;;;35.13;39.65
11077;BME280;5591;42.626;23.380;2023-08-21T16:10:04;94412.50;;;34.79;40.20
11077;BME280;5591;42.626;23.380;2023-08-21T16:12:31;94418.22;;;34.66;41.41